createdAt,value
2022-08-14T00:02:31.521Z,97149.06
2022-08-14T00:05:00.340Z,97150.50
2022-08-14T00:07:28.671Z,97109.31
2022-08-14T00:10:50.356Z,97143.06
2022-08-14T00:12:53.449Z,97139.84
2022-08-14T00:15:29.836Z,97137.75
2022-08-14T00:18:08.647Z,97135.09
2022-08-14T00:20:44.109Z,97133.31
2022-08-14T00:23:17.915Z,97130.13
2022-08-14T00:25:54.016Z,97124.34
2022-08-14T00:28:35.414Z,97128.72
2022-08-14T00:31:05.237Z,97133.44
2022-08-14T00:33:50.766Z,97127.56
2022-08-14T00:36:37.054Z,97115.06
2022-08-14T00:39:18.210Z,97103.84
2022-08-14T00:41:48.343Z,97109.59
2022-08-14T00:44:27.649Z,97108.09
2022-08-14T00:47:02.563Z,97112.44
2022-08-14T00:49:42.719Z,97116.13
2022-08-14T00:52:17.651Z,97094.66
2022-08-14T00:54:53.086Z,97099.09
2022-08-14T00:57:28.016Z,97001.28
2022-08-14T00:59:57.779Z,97098.66
2022-08-14T01:02:28.256Z,97041.09
2022-08-14T01:05:01.413Z,97068.59
2022-08-14T01:07:38.855Z,97036.72
2022-08-14T01:10:16.406Z,97093.66
2022-08-14T01:12:44.991Z,97053.06
2022-08-14T01:15:31.551Z,97086.38
2022-08-14T01:18:26.816Z,97108.09
2022-08-14T01:21:09.240Z,97114.53
2022-08-14T01:23:46.683Z,97109.59
2022-08-14T01:26:23.408Z,97105.69
2022-08-14T01:29:05.137Z,97080.91
2022-08-14T01:31:37.046Z,97104.66
2022-08-14T01:35:18.573Z,97076.28
2022-08-14T01:36:56.036Z,97089.88
2022-08-14T01:39:25.871Z,97114.75
2022-08-14T01:41:58.258Z,97047.13
2022-08-14T01:44:32.595Z,97102.09
2022-08-14T01:47:11.741Z,97111.91
2022-08-14T01:49:46.053Z,97104.16
2022-08-14T01:52:57.643Z,97104.44
2022-08-14T01:55:17.577Z,97074.91
2022-08-14T01:57:49.366Z,97071.34
2022-08-14T02:00:30.949Z,97002.53
2022-08-14T02:03:06.876Z,97071.91
2022-08-14T02:05:38.615Z,97068.47
2022-08-14T02:08:09.808Z,97100.34
2022-08-14T02:10:47.406Z,97103.84
2022-08-14T02:13:19.645Z,97079.81
2022-08-14T02:15:48.826Z,97100.44
2022-08-14T02:18:18.949Z,97090.41
2022-08-14T02:20:48.404Z,97085.31
2022-08-14T02:23:29.195Z,97098.84
2022-08-14T02:26:24.861Z,97084.28
2022-08-14T02:28:58.046Z,97072.84
2022-08-14T02:31:41.897Z,97102.25
2022-08-14T02:34:21.948Z,97095.31
2022-08-14T02:37:03.453Z,97061.41
2022-08-14T02:39:38.015Z,97091.00
2022-08-14T02:42:13.121Z,97095.88
2022-08-14T02:44:49.026Z,97079.22
2022-08-14T02:47:20.958Z,97099.00
2022-08-14T02:49:50.613Z,97097.38
2022-08-14T02:52:26.904Z,97091.16
2022-08-14T02:55:11.711Z,97062.13
2022-08-14T02:57:45.825Z,97086.97
2022-08-14T03:00:26.242Z,97034.94
2022-08-14T03:02:58.854Z,97088.34
2022-08-14T03:05:32.862Z,97054.22
2022-08-14T03:08:09.257Z,97079.69
2022-08-14T03:10:41.837Z,97091.19
2022-08-14T03:13:21.143Z,97095.63
2022-08-14T03:15:55.720Z,97043.50
2022-08-14T03:18:31.563Z,97054.41
2022-08-14T03:21:03.798Z,97093.34
2022-08-14T03:23:38.103Z,97089.44
2022-08-14T03:26:13.224Z,97093.59
2022-08-14T03:28:51.557Z,97101.78
2022-08-14T03:31:25.922Z,97100.09
2022-08-14T03:33:54.724Z,97001.47
2022-08-14T03:37:52.043Z,97094.75
2022-08-14T03:39:21.474Z,97092.19
2022-08-14T03:41:51.654Z,97076.50
2022-08-14T03:45:26.419Z,97089.38
2022-08-14T03:47:11.837Z,97043.38
2022-08-14T03:49:41.871Z,97093.91
2022-08-14T03:52:18.164Z,97061.81
2022-08-14T03:55:00.520Z,97079.13
2022-08-14T03:57:32.991Z,97087.22
2022-08-14T04:00:13.507Z,97085.63
2022-08-14T04:02:56.186Z,97079.50
2022-08-14T04:05:26.733Z,97056.53
2022-08-14T04:08:08.164Z,97080.47
2022-08-14T04:10:43.204Z,97082.09
2022-08-14T04:13:12.575Z,97085.28
2022-08-14T04:15:56.692Z,97064.66
2022-08-14T04:18:30.654Z,97077.75
2022-08-14T04:20:59.545Z,96957.66
2022-08-14T04:23:32.572Z,96989.53
2022-08-14T04:26:03.457Z,97084.00
2022-08-14T04:29:08.563Z,97060.03
2022-08-14T04:32:58.105Z,97081.31
2022-08-14T04:34:20.661Z,97070.03
2022-08-14T04:37:10.684Z,97081.09
2022-08-14T04:39:57.629Z,97087.56
2022-08-14T04:42:47.188Z,97079.81
2022-08-14T04:45:21.354Z,97081.56
2022-08-14T04:48:10.048Z,97045.28
2022-08-14T04:50:44.051Z,97080.69
2022-08-14T04:53:15.836Z,97079.38
2022-08-14T04:55:49.972Z,97080.56
2022-08-14T04:58:32.871Z,97057.34
2022-08-14T05:01:03.568Z,97063.06
2022-08-14T05:03:35.335Z,97081.28
2022-08-14T05:06:35.181Z,97083.06
2022-08-14T05:08:57.338Z,97077.34
2022-08-14T05:11:28.202Z,97078.22
2022-08-14T05:14:33.041Z,97077.72
2022-08-14T05:16:46.843Z,97069.56
2022-08-14T05:19:27.283Z,97076.38
2022-08-14T05:22:16.935Z,97069.88
2022-08-14T05:24:51.404Z,97021.84
2022-08-14T05:27:22.954Z,97071.63
2022-08-14T05:29:55.328Z,97065.94
2022-08-14T05:32:27.289Z,97066.56
2022-08-14T05:34:59.334Z,97043.97
2022-08-14T05:37:31.072Z,97070.00
2022-08-14T05:40:02.550Z,97063.44
2022-08-14T05:42:32.107Z,97070.91
2022-08-14T05:45:04.408Z,97075.56
2022-08-14T05:47:34.201Z,97054.13
2022-08-14T05:50:17.613Z,97061.34
2022-08-14T05:52:50.758Z,97066.66
2022-08-14T05:55:22.587Z,97027.47
2022-08-14T05:57:59.752Z,97060.97
2022-08-14T06:00:36.065Z,96938.19
2022-08-14T06:03:09.337Z,97004.91
2022-08-14T06:05:39.738Z,96968.44
2022-08-14T06:08:31.121Z,97010.88
2022-08-14T06:11:06.867Z,97049.59
2022-08-14T06:13:44.740Z,97038.22
2022-08-14T06:16:17.836Z,97031.69
2022-08-14T06:18:51.826Z,97041.94
2022-08-14T06:21:23.270Z,97049.00
2022-08-14T06:23:51.867Z,97052.78
2022-08-14T06:26:22.393Z,97035.13
2022-08-14T06:28:52.260Z,97054.88
2022-08-14T06:31:22.686Z,97042.22
2022-08-14T06:35:10.769Z,97058.69
2022-08-14T06:36:41.157Z,97036.94
2022-08-14T06:39:10.767Z,97046.75
2022-08-14T06:41:57.516Z,97013.56
2022-08-14T06:44:32.306Z,97037.59
2022-08-14T06:47:03.375Z,97044.00
2022-08-14T06:49:40.637Z,97023.19
2022-08-14T06:52:16.602Z,97030.00
2022-08-14T06:54:45.184Z,97053.72
2022-08-14T06:57:14.012Z,97046.44
2022-08-14T06:59:42.439Z,97050.78
2022-08-14T07:02:29.056Z,97016.03
2022-08-14T07:05:20.859Z,97041.94
2022-08-14T07:07:53.115Z,96973.16
2022-08-14T07:10:25.437Z,97045.03
2022-08-14T07:13:03.968Z,97028.91
2022-08-14T07:15:40.011Z,97034.84
2022-08-14T07:18:12.327Z,97044.56
2022-08-14T07:20:42.204Z,97039.56
2022-08-14T07:23:20.951Z,96968.06
2022-08-14T07:25:51.418Z,97048.06
2022-08-14T07:28:23.764Z,97043.19
2022-08-14T07:30:52.805Z,97021.00
2022-08-14T07:33:24.509Z,97049.84
2022-08-14T07:35:59.409Z,97039.94
2022-08-14T07:38:37.536Z,97021.06
2022-08-14T07:41:14.291Z,97045.00
2022-08-14T07:43:52.902Z,97042.47
2022-08-14T07:46:29.200Z,97019.63
2022-08-14T07:48:59.811Z,96946.84
2022-08-14T07:51:34.044Z,97035.44
2022-08-14T07:54:10.988Z,97015.81
2022-08-14T07:56:47.582Z,97027.97
2022-08-14T07:59:18.700Z,97022.38
2022-08-14T08:01:51.700Z,97031.88
2022-08-14T08:04:26.935Z,97013.56
2022-08-14T08:06:56.280Z,97048.31
2022-08-14T08:09:32.210Z,97028.16
2022-08-14T08:12:04.926Z,97016.63
2022-08-14T08:14:55.708Z,97027.50
2022-08-14T08:17:34.999Z,96994.09
2022-08-14T08:20:12.161Z,97025.94
2022-08-14T08:22:47.985Z,97033.47
2022-08-14T08:25:19.016Z,97031.00
2022-08-14T08:27:57.375Z,97014.69
2022-08-14T08:30:26.578Z,97025.53
2022-08-14T08:32:57.435Z,97053.44
2022-08-14T08:35:46.218Z,97030.75
2022-08-14T08:39:18.537Z,97021.53
2022-08-14T08:41:09.665Z,97029.81
2022-08-14T08:43:45.828Z,96998.50
2022-08-14T08:46:18.819Z,97013.91
2022-08-14T08:48:54.213Z,97022.50
2022-08-14T08:51:30.807Z,96997.84
2022-08-14T08:54:03.722Z,97000.75
2022-08-14T08:56:42.212Z,97007.50
2022-08-14T08:59:22.807Z,96966.19
2022-08-14T09:02:01.097Z,97001.53
2022-08-14T09:04:37.536Z,96969.19
2022-08-14T09:07:14.617Z,96987.91
2022-08-14T09:09:54.188Z,96995.69
2022-08-14T09:12:32.213Z,96993.84
2022-08-14T09:15:03.623Z,96988.19
2022-08-14T09:17:37.707Z,96978.66
2022-08-14T09:20:11.338Z,96984.44
2022-08-14T09:22:42.636Z,96966.69
2022-08-14T09:25:17.093Z,96979.81
2022-08-14T09:27:49.305Z,96979.19
2022-08-14T09:30:32.707Z,96974.50
2022-08-14T09:33:22.824Z,96939.78
2022-08-14T09:36:13.676Z,96970.59
2022-08-14T09:38:48.937Z,96977.66
2022-08-14T09:42:17.665Z,96959.38
2022-08-14T09:44:45.713Z,96971.50
2022-08-14T09:47:15.595Z,96917.34
2022-08-14T09:49:52.219Z,96967.38
2022-08-14T09:52:33.856Z,96942.44
2022-08-14T09:55:21.324Z,96890.78
2022-08-14T09:57:50.655Z,96945.47
2022-08-14T10:00:35.816Z,96925.72
2022-08-14T10:03:05.574Z,96908.44
2022-08-14T10:05:38.013Z,96944.53
2022-08-14T10:08:25.454Z,96911.41
2022-08-14T10:11:02.475Z,96940.81
2022-08-14T10:13:37.122Z,96937.19
2022-08-14T10:16:25.708Z,96932.47
2022-08-14T10:19:10.149Z,96886.34
2022-08-14T10:23:10.931Z,96936.94
2022-08-14T10:24:36.087Z,96928.34
2022-08-14T10:27:04.858Z,96930.56
2022-08-14T10:29:36.143Z,96927.16
2022-08-14T10:32:18.334Z,96893.09
2022-08-14T10:35:06.348Z,96919.16
2022-08-14T10:37:46.608Z,96910.59
2022-08-14T10:40:43.341Z,96906.06
2022-08-14T10:43:17.838Z,96917.69
2022-08-14T10:46:03.599Z,96918.91
2022-08-14T10:49:01.032Z,96900.19
2022-08-14T10:51:34.187Z,96912.31
2022-08-14T10:54:16.999Z,96912.66
2022-08-14T10:56:58.572Z,96903.38
2022-08-14T10:59:31.342Z,96901.22
2022-08-14T11:02:35.762Z,96900.72
2022-08-14T11:05:13.537Z,96898.19
2022-08-14T11:07:56.544Z,96891.97
2022-08-14T11:10:28.057Z,96891.28
2022-08-14T11:12:58.736Z,96831.72
2022-08-14T11:15:29.077Z,96848.00
2022-08-14T11:18:01.445Z,96884.19
2022-08-14T11:20:32.660Z,96878.13
2022-08-14T11:23:02.197Z,96874.59
2022-08-14T11:25:41.258Z,96878.44
2022-08-14T11:28:14.793Z,96856.56
2022-08-14T11:30:53.469Z,96874.75
2022-08-14T11:33:24.814Z,96873.59
2022-08-14T11:35:59.711Z,96863.28
2022-08-14T11:38:29.289Z,96788.97
2022-08-14T11:40:58.800Z,96870.25
2022-08-14T11:43:30.608Z,96858.97
2022-08-14T11:46:03.774Z,96852.19
2022-08-14T11:49:02.968Z,96865.16
2022-08-14T11:51:30.339Z,96859.25
2022-08-14T11:54:05.377Z,96866.13
2022-08-14T11:56:37.043Z,96864.22
2022-08-14T11:59:10.285Z,96861.78
2022-08-14T12:01:41.421Z,96862.81
2022-08-14T12:04:32.584Z,96857.28
2022-08-14T12:07:03.676Z,96862.50
2022-08-14T12:09:34.550Z,96859.97
2022-08-14T12:12:14.134Z,96848.00
2022-08-14T12:14:56.566Z,96863.78
2022-08-14T12:17:26.835Z,96837.50
2022-08-14T12:19:58.960Z,96826.84
2022-08-14T12:22:42.312Z,96842.66
2022-08-14T12:25:14.876Z,96840.13
2022-08-14T12:27:46.682Z,96811.81
2022-08-14T12:30:39.345Z,96832.28
2022-08-14T12:33:24.040Z,96819.66
2022-08-14T12:35:57.548Z,96831.75
2022-08-14T12:38:36.635Z,96827.78
2022-08-14T12:41:10.616Z,96809.44
2022-08-14T12:43:48.194Z,96816.88
2022-08-14T12:46:27.362Z,96795.50
2022-08-14T12:48:59.876Z,96811.81
2022-08-14T12:51:30.901Z,96772.72
2022-08-14T12:54:01.916Z,96809.34
2022-08-14T12:56:33.448Z,96798.81
2022-08-14T12:59:03.636Z,96800.84
2022-08-14T13:01:56.778Z,96777.09
2022-08-14T13:04:23.138Z,96783.50
2022-08-14T13:06:53.139Z,96790.88
2022-08-14T13:09:36.471Z,96789.47
2022-08-14T13:12:32.122Z,96788.59
2022-08-14T13:15:00.178Z,96779.06
2022-08-14T13:17:29.108Z,96756.16
2022-08-14T13:20:10.177Z,96766.53
2022-08-14T13:22:42.811Z,96771.22
2022-08-14T13:25:16.726Z,96735.53
2022-08-14T13:27:46.977Z,96754.78
2022-08-14T13:30:23.527Z,96743.91
2022-08-14T13:32:54.554Z,96746.78
2022-08-14T13:35:27.205Z,96747.13
2022-08-14T13:37:57.494Z,96739.13
2022-08-14T13:40:29.743Z,96675.41
2022-08-14T13:42:58.623Z,96735.94
2022-08-14T13:45:33.876Z,96733.31
2022-08-14T13:48:32.803Z,96720.72
2022-08-14T13:51:05.692Z,96705.63
2022-08-14T13:54:06.875Z,96722.38
2022-08-14T13:56:39.174Z,96711.56
2022-08-14T13:59:08.639Z,96708.22
2022-08-14T14:01:43.716Z,96665.66
2022-08-14T14:04:19.643Z,96702.94
2022-08-14T14:06:51.161Z,96688.06
2022-08-14T14:09:32.241Z,96688.91
2022-08-14T14:12:37.365Z,96696.34
2022-08-14T14:14:57.452Z,96682.97
2022-08-14T14:17:33.453Z,96662.28
2022-08-14T14:20:03.099Z,96684.94
2022-08-14T14:23:00.979Z,96643.47
2022-08-14T14:25:22.468Z,96675.88
2022-08-14T14:27:53.705Z,96672.81
2022-08-14T14:30:52.036Z,96673.88
2022-08-14T14:33:42.428Z,96670.19
2022-08-14T14:36:05.260Z,96605.53
2022-08-14T14:38:35.112Z,96664.63
2022-08-14T14:41:05.816Z,96663.75
2022-08-14T14:43:39.052Z,96662.22
2022-08-14T14:46:09.317Z,96673.56
2022-08-14T14:48:46.812Z,96655.94
2022-08-14T14:51:22.535Z,96666.44
2022-08-14T14:53:52.611Z,96669.63
2022-08-14T14:56:51.945Z,96654.22
2022-08-14T14:59:14.444Z,96655.69
2022-08-14T15:01:51.025Z,96662.16
2022-08-14T15:04:20.545Z,96669.09
2022-08-14T15:06:50.164Z,96670.16
2022-08-14T15:09:23.685Z,96663.06
2022-08-14T15:11:52.333Z,96654.47
2022-08-14T15:14:54.748Z,96655.38
2022-08-14T15:17:10.737Z,96652.44
2022-08-14T15:19:39.731Z,96635.44
2022-08-14T15:22:10.701Z,96666.38
2022-08-14T15:24:39.937Z,96663.59
2022-08-14T15:27:09.401Z,96667.25
2022-08-14T15:29:43.226Z,96650.88
2022-08-14T15:32:11.925Z,96669.03
2022-08-14T15:34:44.531Z,96661.38
2022-08-14T15:37:17.312Z,96653.91
2022-08-14T15:39:45.774Z,96643.94
2022-08-14T15:42:16.013Z,96641.47
2022-08-14T15:44:57.753Z,96651.31
2022-08-14T15:47:30.031Z,96641.69
2022-08-14T15:50:00.519Z,96656.47
2022-08-14T15:52:44.674Z,96648.91
2022-08-14T15:55:15.805Z,96662.31
2022-08-14T15:58:02.297Z,96619.75
2022-08-14T16:00:52.455Z,96649.22
2022-08-14T16:03:27.346Z,96631.09
2022-08-14T16:06:03.497Z,96653.44
2022-08-14T16:08:31.707Z,96649.88
2022-08-14T16:11:01.994Z,96651.19
2022-08-14T16:13:40.516Z,96642.69
2022-08-14T16:16:47.853Z,96643.59
2022-08-14T16:19:09.606Z,96634.72
2022-08-14T16:22:01.984Z,96636.25
2022-08-14T16:24:33.554Z,96632.53
2022-08-14T16:27:05.243Z,96636.00
2022-08-14T16:29:35.982Z,96631.84
2022-08-14T16:32:35.612Z,96639.19
2022-08-14T16:34:55.849Z,96630.84
2022-08-14T16:37:31.142Z,96642.69
2022-08-14T16:40:04.217Z,96628.41
2022-08-14T16:43:02.756Z,96626.97
2022-08-14T16:45:26.298Z,96617.22
2022-08-14T16:47:57.401Z,96622.81
2022-08-14T16:50:43.019Z,96617.03
2022-08-14T16:53:18.001Z,96634.28
2022-08-14T16:55:51.070Z,96600.00
2022-08-14T16:58:29.636Z,96631.50
2022-08-14T17:01:22.454Z,96609.22
2022-08-14T17:04:06.734Z,96544.84
2022-08-14T17:06:47.181Z,96626.16
2022-08-14T17:09:43.502Z,96605.38
2022-08-14T17:12:29.117Z,96621.97
2022-08-14T17:15:09.833Z,96585.28
2022-08-14T17:17:57.434Z,96620.75
2022-08-14T17:20:53.902Z,96597.47
2022-08-14T17:23:17.435Z,96622.59
2022-08-14T17:25:50.943Z,96619.78
2022-08-14T17:28:50.649Z,96617.78
2022-08-14T17:31:09.963Z,96626.81
2022-08-14T17:33:44.750Z,96626.91
2022-08-14T17:36:24.581Z,96632.06
2022-08-14T17:39:06.753Z,96627.13
2022-08-14T17:41:43.355Z,96587.88
2022-08-14T17:44:34.090Z,96630.66
2022-08-14T17:47:18.603Z,96630.19
2022-08-14T17:49:52.183Z,96628.94
2022-08-14T17:52:36.082Z,96609.13
2022-08-14T17:55:12.801Z,96620.09
2022-08-14T17:58:00.767Z,96637.41
2022-08-14T18:00:30.617Z,96643.66
2022-08-14T18:03:00.321Z,96620.81
2022-08-14T18:06:06.478Z,96636.75
2022-08-14T18:08:34.020Z,96654.59
2022-08-14T18:11:15.102Z,96662.50
2022-08-14T18:13:50.892Z,96661.66
2022-08-14T18:16:22.437Z,96670.22
2022-08-14T18:18:51.965Z,96657.75
2022-08-14T18:21:40.069Z,96674.91
2022-08-14T18:24:28.050Z,96650.44
2022-08-14T18:27:06.889Z,96687.41
2022-08-14T18:29:43.770Z,96679.81
2022-08-14T18:32:47.238Z,96694.72
2022-08-14T18:35:18.341Z,96656.78
2022-08-14T18:37:55.453Z,96680.41
2022-08-14T18:40:35.131Z,96592.00
2022-08-14T18:43:06.983Z,96680.47
2022-08-14T18:45:41.306Z,96686.53
2022-08-14T18:48:50.380Z,96706.63
2022-08-14T18:51:45.853Z,96707.63
2022-08-14T18:54:29.932Z,96704.34
2022-08-14T18:57:05.270Z,96716.09
2022-08-14T18:59:40.235Z,96713.03
2022-08-14T19:02:44.553Z,96711.34
2022-08-14T19:05:14.505Z,96719.84
2022-08-14T19:07:43.674Z,96681.56
2022-08-14T19:10:37.397Z,96720.81
2022-08-14T19:13:12.296Z,96709.28
2022-08-14T19:15:44.250Z,96710.97
2022-08-14T19:18:26.187Z,96724.78
2022-08-14T19:20:58.554Z,96712.91
2022-08-14T19:23:42.344Z,96721.28
2022-08-14T19:26:35.637Z,96734.88
2022-08-14T19:29:36.120Z,96734.63
2022-08-14T19:32:22.872Z,96725.22
2022-08-14T19:34:52.508Z,96733.03
2022-08-14T19:37:46.315Z,96747.50
2022-08-14T19:40:29.507Z,96725.66
2022-08-14T19:42:59.478Z,96732.47
2022-08-14T19:45:33.834Z,96741.13
2022-08-14T19:48:02.867Z,96738.66
2022-08-14T19:50:38.999Z,96747.41
2022-08-14T19:53:17.146Z,96744.19
2022-08-14T19:55:58.795Z,96716.09
2022-08-14T19:58:55.268Z,96740.31
2022-08-14T20:01:37.580Z,96741.16
2022-08-14T20:04:46.624Z,96734.03
2022-08-14T20:07:00.492Z,96753.50
2022-08-14T20:11:03.589Z,96713.00
2022-08-14T20:12:35.185Z,96742.66
2022-08-14T20:15:09.022Z,96736.59
2022-08-14T20:17:40.460Z,96741.09
2022-08-14T20:20:20.930Z,96733.78
2022-08-14T20:23:10.828Z,96714.34
2022-08-14T20:25:45.459Z,96735.56
2022-08-14T20:28:35.276Z,96733.78
2022-08-14T20:31:16.097Z,96733.06
2022-08-14T20:34:24.819Z,96720.53
2022-08-14T20:37:09.917Z,96678.41
2022-08-14T20:39:44.877Z,96727.00
2022-08-14T20:42:33.915Z,96718.09
2022-08-14T20:45:21.621Z,96723.22
2022-08-14T20:47:58.633Z,96704.09
2022-08-14T20:50:32.027Z,96718.06
2022-08-14T20:53:06.021Z,96714.69
2022-08-14T20:55:41.575Z,96721.72
2022-08-14T20:58:38.596Z,96637.16
2022-08-14T21:01:34.881Z,96713.47
2022-08-14T21:04:21.313Z,96701.25
2022-08-14T21:07:25.044Z,96699.56
2022-08-14T21:10:05.581Z,96708.69
2022-08-14T21:12:35.772Z,96713.03
2022-08-14T21:15:11.213Z,96717.44
2022-08-14T21:17:44.204Z,96714.88
2022-08-14T21:20:26.461Z,96725.47
2022-08-14T21:23:00.203Z,96699.06
2022-08-14T21:25:31.775Z,96707.50
2022-08-14T21:28:03.289Z,96630.50
2022-08-14T21:30:51.551Z,96719.72
2022-08-14T21:33:23.708Z,96696.13
2022-08-14T21:35:54.862Z,96713.25
2022-08-14T21:38:33.779Z,96711.16
2022-08-14T21:41:43.312Z,96706.97
2022-08-14T21:44:17.454Z,96713.03
2022-08-14T21:46:50.146Z,96654.69
2022-08-14T21:49:23.512Z,96716.41
2022-08-14T21:51:59.878Z,96688.84
2022-08-14T21:54:49.007Z,96724.97
2022-08-14T21:58:04.073Z,96691.78
2022-08-14T22:00:35.151Z,96668.72
2022-08-14T22:03:05.605Z,96704.72
2022-08-14T22:05:35.924Z,96727.06
2022-08-14T22:08:12.037Z,96691.22
2022-08-14T22:10:42.124Z,96653.25
2022-08-14T22:13:11.562Z,96741.97
2022-08-14T22:15:43.676Z,96708.66
2022-08-14T22:18:20.268Z,96688.97
2022-08-14T22:20:54.039Z,96714.41
2022-08-14T22:23:26.090Z,96694.16
2022-08-14T22:25:55.938Z,96681.22
2022-08-14T22:28:32.888Z,96728.03
2022-08-14T22:31:02.997Z,96706.38
2022-08-14T22:33:31.816Z,96719.88
2022-08-14T22:36:24.862Z,96711.69
2022-08-14T22:38:54.476Z,96716.63
2022-08-14T22:41:25.519Z,96636.59
2022-08-14T22:44:02.084Z,96709.72
2022-08-14T22:46:30.383Z,96713.94
2022-08-14T22:48:59.407Z,96693.38
2022-08-14T22:51:29.445Z,96700.38
2022-08-14T22:54:09.183Z,96700.22
2022-08-14T22:56:57.994Z,96689.69
2022-08-14T22:59:36.447Z,96697.41
2022-08-14T23:02:11.953Z,96703.97
2022-08-14T23:04:54.423Z,96683.31
2022-08-14T23:07:26.142Z,96703.41
2022-08-14T23:10:32.398Z,96704.66
2022-08-14T23:13:04.369Z,96698.63
2022-08-14T23:15:33.928Z,96700.59
2022-08-14T23:18:03.495Z,96647.22
2022-08-14T23:20:36.196Z,96691.41
2022-08-14T23:23:13.256Z,96669.91
2022-08-14T23:25:59.412Z,96670.16
2022-08-14T23:28:33.310Z,96697.63
2022-08-14T23:31:34.646Z,96698.56
2022-08-14T23:34:06.845Z,96687.59
2022-08-14T23:36:53.094Z,96700.38
2022-08-14T23:39:30.355Z,96693.34
2022-08-14T23:42:04.090Z,96690.09
2022-08-14T23:44:35.176Z,96683.09
2022-08-14T23:47:10.673Z,96682.25
2022-08-14T23:50:01.212Z,96687.97
2022-08-14T23:52:55.861Z,96669.16
2022-08-14T23:55:20.999Z,96659.31
2022-08-14T23:57:58.052Z,96623.81
